Alsip, Illinois
Current Conditions -  °F | °C
As of 9:53 AM on Thursday 30 Oct 2014 (Local Time) from KMDW Reporting Station
Broken Clouds Broken Clouds  
Wind Chill: 40°   Ceiling: 25000
Heat Index: 44°   Visibility: 10mi
Dew Point: 35°   Wind: 7mph
Humidity: 71%   Direction: 220°SW
Pressure: 30.14"   Gusts: NA
Location:  41.67°N, 87.73°W
Report Text: KMDW 301453Z 22006KT 10SM SCT130 BKN250 07/02 A3014 RMK AO2 SLP211 T00670017 58000
Loading
Personal Weather Stations






























Interactive Weather Map
Tropical Storm Tracking
New forecast layout! Learn more

10-Day Weather Forecast

Advertisements
Track Severe Weather on mobile